sensor_id;sensor_type;location;lat;lon;timestamp;pressure;altitude;pressure_sealevel;temperature;humidity
70198;BME280;57582;-34.876;138.628;2022-08-24T00:02:55;102480;;;13.30;62.94
70198;BME280;57582;-34.876;138.628;2022-08-24T00:05:55;102483;;;13.41;62.44
70198;BME280;57582;-34.876;138.628;2022-08-24T00:08:56;102487;;;13.34;63.96
70198;BME280;57582;-34.876;138.628;2022-08-24T00:11:55;102492;;;13.34;64.55
70198;BME280;57582;-34.876;138.628;2022-08-24T00:14:56;102485;;;13.33;64.81
70198;BME280;57582;-34.876;138.628;2022-08-24T00:17:55;102483;;;13.38;64.64
70198;BME280;57582;-34.876;138.628;2022-08-24T00:20:55;102481;;;13.48;64.93
70198;BME280;57582;-34.876;138.628;2022-08-24T00:23:55;102481;;;13.43;61.87
70198;BME280;57582;-34.876;138.628;2022-08-24T00:26:55;102482;;;13.57;62.45
70198;BME280;57582;-34.876;138.628;2022-08-24T00:29:55;102487;;;13.82;62.38
70198;BME280;57582;-34.876;138.628;2022-08-24T00:32:55;102484;;;13.83;63.12
70198;BME280;57582;-34.876;138.628;2022-08-24T00:35:55;102488;;;13.76;64.06
70198;BME280;57582;-34.876;138.628;2022-08-24T00:38:55;102483;;;13.69;63.91
70198;BME280;57582;-34.876;138.628;2022-08-24T00:41:55;102483;;;13.78;65.18
70198;BME280;57582;-34.876;138.628;2022-08-24T00:44:55;102488;;;13.70;65.56
70198;BME280;57582;-34.876;138.628;2022-08-24T00:47:58;102483;;;13.73;65.28
70198;BME280;57582;-34.876;138.628;2022-08-24T00:50:57;102488;;;13.82;63.18
70198;BME280;57582;-34.876;138.628;2022-08-24T00:53:56;102481;;;14.06;61.24
70198;BME280;57582;-34.876;138.628;2022-08-24T00:56:56;102485;;;14.10;62.69
70198;BME280;57582;-34.876;138.628;2022-08-24T00:59:56;102482;;;14.30;62.96
70198;BME280;57582;-34.876;138.628;2022-08-24T01:02:56;102480;;;14.43;59.76
70198;BME280;57582;-34.876;138.628;2022-08-24T01:05:55;102479;;;14.54;60.60
70198;BME280;57582;-34.876;138.628;2022-08-24T01:08:55;102472;;;14.60;61.86
70198;BME280;57582;-34.876;138.628;2022-08-24T01:11:55;102477;;;14.64;61.04
70198;BME280;57582;-34.876;138.628;2022-08-24T01:14:55;102477;;;14.70;59.79
70198;BME280;57582;-34.876;138.628;2022-08-24T01:17:55;102478;;;14.26;59.79
70198;BME280;57582;-34.876;138.628;2022-08-24T01:20:58;102475;;;14.55;57.51
70198;BME280;57582;-34.876;138.628;2022-08-24T01:23:56;102469;;;14.74;54.27
70198;BME280;57582;-34.876;138.628;2022-08-24T01:26:55;102483;;;14.87;52.45
70198;BME280;57582;-34.876;138.628;2022-08-24T01:29:56;102478;;;14.86;51.51
70198;BME280;57582;-34.876;138.628;2022-08-24T01:32:56;102480;;;14.81;52.95
70198;BME280;57582;-34.876;138.628;2022-08-24T01:36:04;102466;;;15.02;54.04
70198;BME280;57582;-34.876;138.628;2022-08-24T01:38:56;102465;;;15.15;52.56
70198;BME280;57582;-34.876;138.628;2022-08-24T01:41:55;102458;;;15.09;48.83
70198;BME280;57582;-34.876;138.628;2022-08-24T01:44:56;102461;;;15.09;49.83
70198;BME280;57582;-34.876;138.628;2022-08-24T01:47:55;102474;;;14.90;50.14
70198;BME280;57582;-34.876;138.628;2022-08-24T01:50:55;102463;;;14.70;49.49
70198;BME280;57582;-34.876;138.628;2022-08-24T01:53:55;102461;;;14.82;50.04
70198;BME280;57582;-34.876;138.628;2022-08-24T01:56:55;102460;;;14.81;50.62
70198;BME280;57582;-34.876;138.628;2022-08-24T01:59:55;102459;;;14.86;50.03
70198;BME280;57582;-34.876;138.628;2022-08-24T02:02:55;102453;;;14.79;52.30
70198;BME280;57582;-34.876;138.628;2022-08-24T02:05:55;102458;;;14.87;53.64
70198;BME280;57582;-34.876;138.628;2022-08-24T02:08:55;102452;;;14.76;51.33
70198;BME280;57582;-34.876;138.628;2022-08-24T02:11:55;102456;;;14.75;53.79
70198;BME280;57582;-34.876;138.628;2022-08-24T02:14:55;102447;;;14.70;52.31
70198;BME280;57582;-34.876;138.628;2022-08-24T02:17:55;102430;;;14.80;54.15
70198;BME280;57582;-34.876;138.628;2022-08-24T02:20:55;102428;;;15.04;54.51
70198;BME280;57582;-34.876;138.628;2022-08-24T02:23:55;102429;;;15.03;54.47
70198;BME280;57582;-34.876;138.628;2022-08-24T02:26:55;102423;;;14.98;53.88
70198;BME280;57582;-34.876;138.628;2022-08-24T02:29:55;102426;;;14.95;54.75
70198;BME280;57582;-34.876;138.628;2022-08-24T02:32:55;102422;;;14.85;54.96
70198;BME280;57582;-34.876;138.628;2022-08-24T02:35:55;102414;;;14.68;55.30
70198;BME280;57582;-34.876;138.628;2022-08-24T02:38:55;102404;;;14.61;54.90
70198;BME280;57582;-34.876;138.628;2022-08-24T02:41:55;102405;;;14.74;54.39
70198;BME280;57582;-34.876;138.628;2022-08-24T02:44:55;102400;;;14.83;55.40
70198;BME280;57582;-34.876;138.628;2022-08-24T02:47:55;102396;;;14.67;54.90
70198;BME280;57582;-34.876;138.628;2022-08-24T02:50:56;102390;;;14.58;55.64
70198;BME280;57582;-34.876;138.628;2022-08-24T02:53:56;102391;;;14.42;55.32
70198;BME280;57582;-34.876;138.628;2022-08-24T02:56:55;102387;;;14.36;56.40
70198;BME280;57582;-34.876;138.628;2022-08-24T02:59:55;102377;;;14.34;56.31
70198;BME280;57582;-34.876;138.628;2022-08-24T03:02:55;102388;;;14.31;56.08
70198;BME280;57582;-34.876;138.628;2022-08-24T03:05:55;102382;;;14.32;57.50
70198;BME280;57582;-34.876;138.628;2022-08-24T03:08:56;102389;;;14.10;58.28
70198;BME280;57582;-34.876;138.628;2022-08-24T03:11:55;102384;;;13.98;59.35
70198;BME280;57582;-34.876;138.628;2022-08-24T03:14:55;102385;;;13.81;62.00
70198;BME280;57582;-34.876;138.628;2022-08-24T03:17:55;102382;;;13.87;63.77
70198;BME280;57582;-34.876;138.628;2022-08-24T03:20:56;102383;;;13.81;64.09
70198;BME280;57582;-34.876;138.628;2022-08-24T03:23:55;102369;;;13.78;63.38
70198;BME280;57582;-34.876;138.628;2022-08-24T03:26:56;102375;;;13.65;62.10
70198;BME280;57582;-34.876;138.628;2022-08-24T03:29:55;102370;;;13.63;61.57
70198;BME280;57582;-34.876;138.628;2022-08-24T03:32:56;102364;;;13.73;61.38
70198;BME280;57582;-34.876;138.628;2022-08-24T03:35:55;102361;;;13.91;61.28
70198;BME280;57582;-34.876;138.628;2022-08-24T03:38:56;102362;;;13.77;62.33
70198;BME280;57582;-34.876;138.628;2022-08-24T03:41:55;102364;;;13.93;61.07
70198;BME280;57582;-34.876;138.628;2022-08-24T03:44:55;102365;;;14.03;62.06
70198;BME280;57582;-34.876;138.628;2022-08-24T03:47:55;102360;;;14.19;63.66
70198;BME280;57582;-34.876;138.628;2022-08-24T03:50:56;102363;;;14.24;63.86
70198;BME280;57582;-34.876;138.628;2022-08-24T03:53:56;102349;;;14.39;62.93
70198;BME280;57582;-34.876;138.628;2022-08-24T03:56:55;102346;;;14.60;61.28
70198;BME280;57582;-34.876;138.628;2022-08-24T03:59:55;102340;;;14.87;61.35
70198;BME280;57582;-34.876;138.628;2022-08-24T04:02:55;102332;;;15.21;56.77
70198;BME280;57582;-34.876;138.628;2022-08-24T04:05:55;102327;;;15.42;57.40
70198;BME280;57582;-34.876;138.628;2022-08-24T04:08:56;102322;;;15.57;55.30
70198;BME280;57582;-34.876;138.628;2022-08-24T04:11:55;102319;;;15.71;56.28
70198;BME280;57582;-34.876;138.628;2022-08-24T04:14:55;102320;;;15.72;55.02
70198;BME280;57582;-34.876;138.628;2022-08-24T04:17:55;102321;;;15.62;53.32
70198;BME280;57582;-34.876;138.628;2022-08-24T04:20:56;102316;;;15.73;53.21
70198;BME280;57582;-34.876;138.628;2022-08-24T04:23:55;102308;;;15.87;52.81
70198;BME280;57582;-34.876;138.628;2022-08-24T04:26:56;102324;;;15.93;51.63
70198;BME280;57582;-34.876;138.628;2022-08-24T04:29:55;102318;;;15.85;53.35
70198;BME280;57582;-34.876;138.628;2022-08-24T04:32:56;102317;;;15.94;54.83
70198;BME280;57582;-34.876;138.628;2022-08-24T04:35:55;102307;;;16.11;55.04
70198;BME280;57582;-34.876;138.628;2022-08-24T04:38:56;102306;;;16.17;53.04
70198;BME280;57582;-34.876;138.628;2022-08-24T04:41:55;102305;;;16.10;53.65
70198;BME280;57582;-34.876;138.628;2022-08-24T04:44:56;102299;;;16.08;52.42
70198;BME280;57582;-34.876;138.628;2022-08-24T04:47:55;102304;;;16.23;53.37
70198;BME280;57582;-34.876;138.628;2022-08-24T04:51:00;102313;;;16.38;51.93
70198;BME280;57582;-34.876;138.628;2022-08-24T04:53:55;102296;;;16.52;51.11
70198;BME280;57582;-34.876;138.628;2022-08-24T04:56:56;102307;;;16.49;49.45
70198;BME280;57582;-34.876;138.628;2022-08-24T04:59:55;102310;;;16.46;51.04
70198;BME280;57582;-34.876;138.628;2022-08-24T05:02:56;102314;;;16.39;49.24
70198;BME280;57582;-34.876;138.628;2022-08-24T05:05:55;102314;;;16.47;49.73
70198;BME280;57582;-34.876;138.628;2022-08-24T05:08:56;102309;;;16.55;50.61
70198;BME280;57582;-34.876;138.628;2022-08-24T05:11:55;102313;;;16.42;50.53
70198;BME280;57582;-34.876;138.628;2022-08-24T05:14:55;102323;;;16.49;51.40
70198;BME280;57582;-34.876;138.628;2022-08-24T05:17:55;102326;;;16.52;52.14
70198;BME280;57582;-34.876;138.628;2022-08-24T05:20:55;102330;;;16.52;51.69
70198;BME280;57582;-34.876;138.628;2022-08-24T05:23:55;102321;;;16.43;51.92
70198;BME280;57582;-34.876;138.628;2022-08-24T05:26:55;102324;;;16.42;53.06
70198;BME280;57582;-34.876;138.628;2022-08-24T05:29:55;102318;;;16.31;52.82
70198;BME280;57582;-34.876;138.628;2022-08-24T05:32:55;102327;;;16.10;53.79
70198;BME280;57582;-34.876;138.628;2022-08-24T05:35:55;102320;;;16.12;53.67
70198;BME280;57582;-34.876;138.628;2022-08-24T05:38:57;102317;;;16.17;54.33
70198;BME280;57582;-34.876;138.628;2022-08-24T05:41:56;102322;;;16.18;55.28
70198;BME280;57582;-34.876;138.628;2022-08-24T05:44:56;102316;;;16.08;55.39
70198;BME280;57582;-34.876;138.628;2022-08-24T05:47:55;102326;;;16.11;55.91
70198;BME280;57582;-34.876;138.628;2022-08-24T05:50:56;102314;;;16.13;55.91
70198;BME280;57582;-34.876;138.628;2022-08-24T05:53:56;102314;;;15.65;56.72
70198;BME280;57582;-34.876;138.628;2022-08-24T05:56:56;102315;;;15.57;56.89
70198;BME280;57582;-34.876;138.628;2022-08-24T05:59:55;102306;;;15.63;57.10
70198;BME280;57582;-34.876;138.628;2022-08-24T06:02:56;102306;;;15.66;57.70
70198;BME280;57582;-34.876;138.628;2022-08-24T06:05:55;102309;;;15.55;57.53
70198;BME280;57582;-34.876;138.628;2022-08-24T06:08:57;102304;;;15.27;56.79
70198;BME280;57582;-34.876;138.628;2022-08-24T06:11:55;102309;;;15.20;58.23
70198;BME280;57582;-34.876;138.628;2022-08-24T06:14:56;102305;;;15.13;58.85
70198;BME280;57582;-34.876;138.628;2022-08-24T06:17:55;102301;;;15.19;58.81
70198;BME280;57582;-34.876;138.628;2022-08-24T06:20:56;102302;;;15.03;58.02
70198;BME280;57582;-34.876;138.628;2022-08-24T06:23:55;102298;;;14.98;58.98
70198;BME280;57582;-34.876;138.628;2022-08-24T06:26:56;102300;;;15.07;58.98
70198;BME280;57582;-34.876;138.628;2022-08-24T06:29:57;102298;;;14.98;59.02
70198;BME280;57582;-34.876;138.628;2022-08-24T06:32:58;102299;;;14.92;59.63
70198;BME280;57582;-34.876;138.628;2022-08-24T06:35:55;102298;;;14.99;59.67
70198;BME280;57582;-34.876;138.628;2022-08-24T06:38:56;102306;;;15.12;60.93
70198;BME280;57582;-34.876;138.628;2022-08-24T06:41:55;102306;;;15.30;59.41
70198;BME280;57582;-34.876;138.628;2022-08-24T06:44:56;102314;;;15.51;58.60
70198;BME280;57582;-34.876;138.628;2022-08-24T06:47:55;102315;;;15.56;57.90
70198;BME280;57582;-34.876;138.628;2022-08-24T06:50:56;102314;;;15.57;59.61
70198;BME280;57582;-34.876;138.628;2022-08-24T06:53:55;102314;;;15.73;58.48
70198;BME280;57582;-34.876;138.628;2022-08-24T06:56:56;102315;;;15.90;56.88
70198;BME280;57582;-34.876;138.628;2022-08-24T06:59:55;102306;;;16.07;56.62
70198;BME280;57582;-34.876;138.628;2022-08-24T07:02:56;102310;;;16.01;55.99
70198;BME280;57582;-34.876;138.628;2022-08-24T07:05:56;102314;;;15.87;56.24
70198;BME280;57582;-34.876;138.628;2022-08-24T07:08:56;102307;;;15.58;58.02
70198;BME280;57582;-34.876;138.628;2022-08-24T07:11:55;102314;;;15.33;59.51
70198;BME280;57582;-34.876;138.628;2022-08-24T07:14:56;102320;;;15.33;60.08
70198;BME280;57582;-34.876;138.628;2022-08-24T07:17:55;102313;;;15.29;60.22
70198;BME280;57582;-34.876;138.628;2022-08-24T07:20:58;102311;;;15.25;60.45
70198;BME280;57582;-34.876;138.628;2022-08-24T07:23:56;102312;;;15.22;60.78
70198;BME280;57582;-34.876;138.628;2022-08-24T07:26:56;102309;;;15.01;61.48
70198;BME280;57582;-34.876;138.628;2022-08-24T07:29:55;102306;;;15.04;61.12
70198;BME280;57582;-34.876;138.628;2022-08-24T07:32:56;102311;;;15.02;60.48
70198;BME280;57582;-34.876;138.628;2022-08-24T07:35:55;102314;;;15.04;60.13
70198;BME280;57582;-34.876;138.628;2022-08-24T07:38:56;102323;;;15.11;59.66
70198;BME280;57582;-34.876;138.628;2022-08-24T07:41:55;102329;;;15.13;59.78
70198;BME280;57582;-34.876;138.628;2022-08-24T07:44:56;102316;;;15.15;60.05
70198;BME280;57582;-34.876;138.628;2022-08-24T07:47:55;102313;;;15.06;60.59
70198;BME280;57582;-34.876;138.628;2022-08-24T07:50:56;102312;;;15.01;60.96
70198;BME280;57582;-34.876;138.628;2022-08-24T07:53:55;102312;;;15.14;60.84
70198;BME280;57582;-34.876;138.628;2022-08-24T07:56:58;102313;;;15.24;60.58
70198;BME280;57582;-34.876;138.628;2022-08-24T07:59:57;102316;;;15.18;60.89
70198;BME280;57582;-34.876;138.628;2022-08-24T08:02:56;102329;;;15.05;65.71
70198;BME280;57582;-34.876;138.628;2022-08-24T08:05:56;102329;;;14.62;67.87
70198;BME280;57582;-34.876;138.628;2022-08-24T08:08:56;102332;;;14.54;68.70
70198;BME280;57582;-34.876;138.628;2022-08-24T08:11:55;102338;;;14.33;68.80
70198;BME280;57582;-34.876;138.628;2022-08-24T08:14:56;102338;;;14.35;68.74
70198;BME280;57582;-34.876;138.628;2022-08-24T08:17:56;102348;;;14.29;68.55
70198;BME280;57582;-34.876;138.628;2022-08-24T08:20:56;102351;;;14.20;68.43
70198;BME280;57582;-34.876;138.628;2022-08-24T08:23:55;102348;;;14.09;67.89
70198;BME280;57582;-34.876;138.628;2022-08-24T08:26:56;102354;;;13.90;68.17
70198;BME280;57582;-34.876;138.628;2022-08-24T08:29:55;102344;;;13.89;68.74
70198;BME280;57582;-34.876;138.628;2022-08-24T08:32:56;102353;;;13.93;68.33
70198;BME280;57582;-34.876;138.628;2022-08-24T08:36:01;102350;;;14.05;68.28
70198;BME280;57582;-34.876;138.628;2022-08-24T08:38:56;102356;;;14.18;67.72
70198;BME280;57582;-34.876;138.628;2022-08-24T09:00:14;102354;;;15.21;64.10
70198;BME280;57582;-34.876;138.628;2022-08-24T09:12:02;102371;;;15.76;62.92
70198;BME280;57582;-34.876;138.628;2022-08-24T09:15:31;102369;;;15.78;62.54
70198;BME280;57582;-34.876;138.628;2022-08-24T09:21:02;102375;;;15.80;62.72
70198;BME280;57582;-34.876;138.628;2022-08-24T09:36:02;102375;;;15.72;62.10
70198;BME280;57582;-34.876;138.628;2022-08-24T09:38:58;102380;;;15.72;62.14
70198;BME280;57582;-34.876;138.628;2022-08-24T09:54:01;102400;;;15.67;61.38
70198;BME280;57582;-34.876;138.628;2022-08-24T10:00:05;102395;;;15.54;61.78
70198;BME280;57582;-34.876;138.628;2022-08-24T10:21:02;102393;;;15.39;61.99
70198;BME280;57582;-34.876;138.628;2022-08-24T10:27:07;102393;;;15.46;61.55
70198;BME280;57582;-34.876;138.628;2022-08-24T10:39:03;102384;;;15.32;63.25
70198;BME280;57582;-34.876;138.628;2022-08-24T10:45:01;102387;;;14.96;65.26
70198;BME280;57582;-34.876;138.628;2022-08-24T10:53:56;102395;;;15.07;65.73
70198;BME280;57582;-34.876;138.628;2022-08-24T11:00:13;102395;;;15.08;64.99
70198;BME280;57582;-34.876;138.628;2022-08-24T11:03:05;102389;;;15.08;65.39
70198;BME280;57582;-34.876;138.628;2022-08-24T11:05:56;102392;;;15.13;65.17
70198;BME280;57582;-34.876;138.628;2022-08-24T11:09:00;102392;;;15.10;64.94
70198;BME280;57582;-34.876;138.628;2022-08-24T11:11:56;102386;;;15.13;65.21
70198;BME280;57582;-34.876;138.628;2022-08-24T11:14:59;102383;;;15.09;64.64
70198;BME280;57582;-34.876;138.628;2022-08-24T11:17:57;102374;;;15.04;64.38
70198;BME280;57582;-34.876;138.628;2022-08-24T11:20:56;102380;;;15.04;64.66
70198;BME280;57582;-34.876;138.628;2022-08-24T11:23:59;102383;;;15.03;64.78
70198;BME280;57582;-34.876;138.628;2022-08-24T11:29:57;102393;;;15.07;64.87
70198;BME280;57582;-34.876;138.628;2022-08-24T11:35:56;102385;;;15.04;64.05
70198;BME280;57582;-34.876;138.628;2022-08-24T11:45:02;102396;;;14.95;65.12
70198;BME280;57582;-34.876;138.628;2022-08-24T11:48:07;102398;;;14.86;65.75
70198;BME280;57582;-34.876;138.628;2022-08-24T11:51:04;102404;;;14.80;66.00
70198;BME280;57582;-34.876;138.628;2022-08-24T12:03:00;102412;;;14.21;66.49
70198;BME280;57582;-34.876;138.628;2022-08-24T12:05:58;102411;;;14.03;67.08
70198;BME280;57582;-34.876;138.628;2022-08-24T12:09:00;102412;;;14.14;66.87
70198;BME280;57582;-34.876;138.628;2022-08-24T12:14:58;102415;;;14.31;68.14
70198;BME280;57582;-34.876;138.628;2022-08-24T12:17:57;102412;;;14.53;66.67
70198;BME280;57582;-34.876;138.628;2022-08-24T12:20:56;102412;;;14.82;65.64
70198;BME280;57582;-34.876;138.628;2022-08-24T12:23:58;102405;;;15.13;64.12
70198;BME280;57582;-34.876;138.628;2022-08-24T12:27:00;102401;;;15.43;62.94
70198;BME280;57582;-34.876;138.628;2022-08-24T12:30:14;102394;;;15.61;61.92
70198;BME280;57582;-34.876;138.628;2022-08-24T12:32:57;102403;;;15.79;61.07
70198;BME280;57582;-34.876;138.628;2022-08-24T12:35:58;102404;;;15.96;60.24
70198;BME280;57582;-34.876;138.628;2022-08-24T12:42:15;102404;;;16.31;58.42
70198;BME280;57582;-34.876;138.628;2022-08-24T12:44:59;102395;;;16.32;57.00
70198;BME280;57582;-34.876;138.628;2022-08-24T12:51:01;102404;;;16.25;57.75
70198;BME280;57582;-34.876;138.628;2022-08-24T12:57:03;102396;;;16.36;57.26
70198;BME280;57582;-34.876;138.628;2022-08-24T12:59:57;102399;;;16.38;57.33
70198;BME280;57582;-34.876;138.628;2022-08-24T13:03:00;102402;;;16.38;57.18
70198;BME280;57582;-34.876;138.628;2022-08-24T13:05:57;102402;;;16.33;57.38
70198;BME280;57582;-34.876;138.628;2022-08-24T13:09:06;102397;;;16.30;57.60
70198;BME280;57582;-34.876;138.628;2022-08-24T13:11:56;102399;;;16.28;57.58
70198;BME280;57582;-34.876;138.628;2022-08-24T13:15:48;102400;;;16.29;57.88
70198;BME280;57582;-34.876;138.628;2022-08-24T13:17:58;102393;;;16.31;57.96
70198;BME280;57582;-34.876;138.628;2022-08-24T13:20:56;102385;;;16.13;58.16
70198;BME280;57582;-34.876;138.628;2022-08-24T13:30:05;102375;;;16.03;59.43
70198;BME280;57582;-34.876;138.628;2022-08-24T13:32:58;102372;;;15.98;59.65
70198;BME280;57582;-34.876;138.628;2022-08-24T13:35:58;102371;;;15.95;59.88
70198;BME280;57582;-34.876;138.628;2022-08-24T13:39:05;102366;;;16.02;60.06
70198;BME280;57582;-34.876;138.628;2022-08-24T13:51:04;102361;;;15.74;60.06
70198;BME280;57582;-34.876;138.628;2022-08-24T14:12:03;102350;;;15.51;61.83
70198;BME280;57582;-34.876;138.628;2022-08-24T14:18:13;102350;;;15.51;62.15
70198;BME280;57582;-34.876;138.628;2022-08-24T14:21:12;102357;;;15.52;62.28
70198;BME280;57582;-34.876;138.628;2022-08-24T14:23:59;102354;;;15.55;62.34
70198;BME280;57582;-34.876;138.628;2022-08-24T14:26:59;102356;;;15.51;62.61
70198;BME280;57582;-34.876;138.628;2022-08-24T14:38:57;102350;;;15.51;64.04
70198;BME280;57582;-34.876;138.628;2022-08-24T14:42:01;102341;;;15.73;64.32
70198;BME280;57582;-34.876;138.628;2022-08-24T14:48:10;102337;;;16.43;61.07
70198;BME280;57582;-34.876;138.628;2022-08-24T15:00:05;102332;;;17.04;57.89
70198;BME280;57582;-34.876;138.628;2022-08-24T15:09:05;102337;;;17.23;56.54
70198;BME280;57582;-34.876;138.628;2022-08-24T15:11:59;102338;;;17.18;55.94
70198;BME280;57582;-34.876;138.628;2022-08-24T15:15:08;102337;;;17.11;56.07
70198;BME280;57582;-34.876;138.628;2022-08-24T15:29:57;102330;;;16.53;56.38
70198;BME280;57582;-34.876;138.628;2022-08-24T15:36:13;102333;;;16.38;57.17
70198;BME280;57582;-34.876;138.628;2022-08-24T15:38:57;102337;;;16.28;57.67
70198;BME280;57582;-34.876;138.628;2022-08-24T15:41:56;102338;;;16.21;58.07
70198;BME280;57582;-34.876;138.628;2022-08-24T15:44:59;102335;;;16.06;58.65
70198;BME280;57582;-34.876;138.628;2022-08-24T15:47:56;102340;;;15.71;60.05
70198;BME280;57582;-34.876;138.628;2022-08-24T15:50:57;102343;;;15.44;60.89
70198;BME280;57582;-34.876;138.628;2022-08-24T15:53:56;102340;;;15.29;61.41
70198;BME280;57582;-34.876;138.628;2022-08-24T16:00:12;102337;;;15.03;62.55
70198;BME280;57582;-34.876;138.628;2022-08-24T16:03:12;102333;;;15.04;63.30
70198;BME280;57582;-34.876;138.628;2022-08-24T16:05:56;102331;;;15.03;63.29
70198;BME280;57582;-34.876;138.628;2022-08-24T16:15:15;102327;;;14.94;64.13
70198;BME280;57582;-34.876;138.628;2022-08-24T16:17:56;102322;;;15.00;64.21
70198;BME280;57582;-34.876;138.628;2022-08-24T16:20:56;102322;;;15.11;64.04
70198;BME280;57582;-34.876;138.628;2022-08-24T16:23:58;102314;;;15.17;63.93
70198;BME280;57582;-34.876;138.628;2022-08-24T16:26:59;102312;;;15.22;64.44
70198;BME280;57582;-34.876;138.628;2022-08-24T16:29:56;102311;;;15.15;64.84
70198;BME280;57582;-34.876;138.628;2022-08-24T16:32:57;102315;;;15.08;65.60
70198;BME280;57582;-34.876;138.628;2022-08-24T16:35:57;102307;;;14.92;66.81
70198;BME280;57582;-34.876;138.628;2022-08-24T16:38:57;102305;;;14.86;67.19
70198;BME280;57582;-34.876;138.628;2022-08-24T16:41:57;102306;;;14.77;67.66
70198;BME280;57582;-34.876;138.628;2022-08-24T16:44:57;102308;;;14.60;68.25
70198;BME280;57582;-34.876;138.628;2022-08-24T16:47:56;102305;;;14.58;68.48
70198;BME280;57582;-34.876;138.628;2022-08-24T16:50:57;102296;;;14.58;68.64
70198;BME280;57582;-34.876;138.628;2022-08-24T16:53:56;102299;;;14.55;68.61
70198;BME280;57582;-34.876;138.628;2022-08-24T16:56:57;102292;;;14.52;69.04
70198;BME280;57582;-34.876;138.628;2022-08-24T16:59:56;102290;;;14.45;68.94
70198;BME280;57582;-34.876;138.628;2022-08-24T17:02:57;102293;;;14.48;69.19
70198;BME280;57582;-34.876;138.628;2022-08-24T17:05:56;102292;;;14.49;69.51
70198;BME280;57582;-34.876;138.628;2022-08-24T17:08:57;102286;;;14.45;69.35
70198;BME280;57582;-34.876;138.628;2022-08-24T17:11:56;102277;;;14.50;69.54
70198;BME280;57582;-34.876;138.628;2022-08-24T17:14:57;102278;;;14.55;69.34
70198;BME280;57582;-34.876;138.628;2022-08-24T17:17:59;102271;;;14.56;69.27
70198;BME280;57582;-34.876;138.628;2022-08-24T17:20:57;102271;;;14.62;69.25
70198;BME280;57582;-34.876;138.628;2022-08-24T17:23:56;102265;;;14.54;69.23
70198;BME280;57582;-34.876;138.628;2022-08-24T17:26:57;102267;;;14.19;70.22
70198;BME280;57582;-34.876;138.628;2022-08-24T17:29:57;102268;;;14.11;70.55
70198;BME280;57582;-34.876;138.628;2022-08-24T17:32:57;102255;;;14.10;70.37
70198;BME280;57582;-34.876;138.628;2022-08-24T17:35:56;102254;;;13.96;70.72
70198;BME280;57582;-34.876;138.628;2022-08-24T17:38:57;102253;;;14.00;70.48
70198;BME280;57582;-34.876;138.628;2022-08-24T17:41:56;102251;;;14.06;69.94
70198;BME280;57582;-34.876;138.628;2022-08-24T17:44:57;102251;;;14.07;69.63
70198;BME280;57582;-34.876;138.628;2022-08-24T17:47:56;102255;;;14.09;68.87
70198;BME280;57582;-34.876;138.628;2022-08-24T17:50:57;102257;;;14.09;68.92
70198;BME280;57582;-34.876;138.628;2022-08-24T17:53:56;102256;;;14.09;68.45
70198;BME280;57582;-34.876;138.628;2022-08-24T17:56:57;102261;;;14.08;68.04
70198;BME280;57582;-34.876;138.628;2022-08-24T17:59:56;102260;;;14.09;67.94
70198;BME280;57582;-34.876;138.628;2022-08-24T18:02:57;102250;;;14.14;67.82
70198;BME280;57582;-34.876;138.628;2022-08-24T18:05:56;102244;;;14.16;67.96
70198;BME280;57582;-34.876;138.628;2022-08-24T18:08:58;102247;;;14.18;68.08
70198;BME280;57582;-34.876;138.628;2022-08-24T18:11:56;102248;;;14.20;67.98
70198;BME280;57582;-34.876;138.628;2022-08-24T18:14:57;102238;;;14.21;68.26
70198;BME280;57582;-34.876;138.628;2022-08-24T18:17:57;102250;;;14.21;68.44
70198;BME280;57582;-34.876;138.628;2022-08-24T18:20:57;102250;;;14.21;68.40
70198;BME280;57582;-34.876;138.628;2022-08-24T18:23:56;102248;;;14.22;68.43
70198;BME280;57582;-34.876;138.628;2022-08-24T18:26:58;102256;;;14.18;68.63
70198;BME280;57582;-34.876;138.628;2022-08-24T18:29:57;102258;;;14.20;68.99
70198;BME280;57582;-34.876;138.628;2022-08-24T18:32:57;102257;;;14.19;69.08
70198;BME280;57582;-34.876;138.628;2022-08-24T18:35:56;102257;;;14.21;69.38
70198;BME280;57582;-34.876;138.628;2022-08-24T18:38:57;102270;;;14.23;69.35
70198;BME280;57582;-34.876;138.628;2022-08-24T18:41:57;102271;;;14.21;69.43
70198;BME280;57582;-34.876;138.628;2022-08-24T18:44:57;102279;;;14.21;69.56
70198;BME280;57582;-34.876;138.628;2022-08-24T18:47:56;102277;;;14.21;69.72
70198;BME280;57582;-34.876;138.628;2022-08-24T18:50:57;102273;;;14.25;69.57
70198;BME280;57582;-34.876;138.628;2022-08-24T18:53:59;102267;;;14.28;69.42
70198;BME280;57582;-34.876;138.628;2022-08-24T18:56:57;102274;;;14.27;69.55
70198;BME280;57582;-34.876;138.628;2022-08-24T18:59:56;102277;;;14.27;69.51
70198;BME280;57582;-34.876;138.628;2022-08-24T19:02:57;102271;;;14.27;69.41
70198;BME280;57582;-34.876;138.628;2022-08-24T19:05:56;102279;;;14.29;69.49
70198;BME280;57582;-34.876;138.628;2022-08-24T19:08:57;102280;;;14.29;69.39
70198;BME280;57582;-34.876;138.628;2022-08-24T19:11:56;102280;;;14.31;69.27
70198;BME280;57582;-34.876;138.628;2022-08-24T19:14:57;102273;;;14.33;69.21
70198;BME280;57582;-34.876;138.628;2022-08-24T19:17:56;102276;;;14.33;69.52
70198;BME280;57582;-34.876;138.628;2022-08-24T19:20:58;102277;;;14.35;69.52